createdAt,value
2022-09-28T00:00:16.974Z,5.55
2022-09-28T00:02:44.757Z,5.05
2022-09-28T00:05:13.153Z,3.97
2022-09-28T00:07:41.932Z,4.10
2022-09-28T00:10:10.240Z,5.55
2022-09-28T00:12:37.773Z,6.32
2022-09-28T00:15:05.851Z,7.25
2022-09-28T00:17:36.382Z,4.72
2022-09-28T00:20:06.000Z,5.90
2022-09-28T00:22:33.728Z,5.88
2022-09-28T00:25:01.416Z,5.63
2022-09-28T00:27:28.886Z,5.30
2022-09-28T00:29:56.968Z,5.60
2022-09-28T00:32:24.971Z,5.80
2022-09-28T00:34:53.834Z,4.28
2022-09-28T00:37:21.896Z,3.90
2022-09-28T00:39:49.472Z,6.32
2022-09-28T00:42:20.263Z,4.43
2022-09-28T00:44:49.905Z,3.58
2022-09-28T00:47:43.662Z,3.40
2022-09-28T00:50:21.920Z,4.40
2022-09-28T00:52:54.206Z,4.20
2022-09-28T00:55:26.491Z,5.38
2022-09-28T00:57:58.952Z,4.25
2022-09-28T01:00:28.658Z,5.20
2022-09-28T01:02:56.541Z,4.97
2022-09-28T01:05:25.625Z,3.70
2022-09-28T01:07:53.597Z,6.20
2022-09-28T01:10:21.148Z,5.65
2022-09-28T01:12:48.643Z,4.32
2022-09-28T01:15:16.634Z,4.75
2022-09-28T01:17:58.307Z,6.20
2022-09-28T01:20:49.925Z,4.78
2022-09-28T01:23:36.904Z,5.53
2022-09-28T01:26:39.657Z,5.10
2022-09-28T01:29:17.223Z,5.07
2022-09-28T01:31:50.567Z,4.30
2022-09-28T01:34:25.322Z,4.45
2022-09-28T01:36:56.297Z,5.72
2022-09-28T01:39:29.687Z,4.80
2022-09-28T01:42:02.973Z,6.32
2022-09-28T01:44:33.758Z,7.85
2022-09-28T01:47:04.267Z,7.50
2022-09-28T01:49:36.154Z,6.50
2022-09-28T01:52:08.788Z,5.47
2022-09-28T01:54:42.927Z,8.93
2022-09-28T01:57:18.461Z,6.95
2022-09-28T01:59:54.062Z,7.78
2022-09-28T02:02:27.639Z,10.32
2022-09-28T02:04:58.997Z,5.72
2022-09-28T02:07:34.637Z,8.43
2022-09-28T02:10:09.769Z,10.35
2022-09-28T02:12:43.572Z,7.88
2022-09-28T02:15:15.985Z,8.88
2022-09-28T02:17:43.953Z,10.27
2022-09-28T02:20:12.117Z,9.68
2022-09-28T02:22:44.647Z,9.73
2022-09-28T02:25:18.654Z,8.00
2022-09-28T02:27:55.005Z,7.70
2022-09-28T02:30:22.742Z,9.63
2022-09-28T02:32:53.745Z,10.38
2022-09-28T02:35:21.762Z,8.98
2022-09-28T02:37:51.010Z,11.82
2022-09-28T02:40:21.306Z,10.77
2022-09-28T02:43:00.209Z,12.05
2022-09-28T02:45:42.222Z,12.50
2022-09-28T02:48:31.458Z,11.98
2022-09-28T02:51:19.906Z,17.67
2022-09-28T02:54:01.579Z,17.63
2022-09-28T02:57:00.190Z,19.15
2022-09-28T02:59:42.651Z,17.10
2022-09-28T03:02:20.518Z,17.20
2022-09-28T03:05:02.104Z,17.85
2022-09-28T03:07:34.743Z,17.25
2022-09-28T03:10:09.075Z,16.73
2022-09-28T03:12:38.371Z,16.83
2022-09-28T03:15:14.668Z,18.67
2022-09-28T03:17:42.182Z,15.65
2022-09-28T03:20:11.342Z,15.93
2022-09-28T03:22:39.933Z,14.20
2022-09-28T03:25:08.872Z,16.77
2022-09-28T03:27:36.465Z,15.18
2022-09-28T03:30:04.519Z,15.48
2022-09-28T03:32:33.365Z,17.23
2022-09-28T03:35:01.072Z,17.67
2022-09-28T03:37:28.979Z,20.33
2022-09-28T03:39:56.481Z,18.50
2022-09-28T03:42:23.996Z,17.95
2022-09-28T03:44:51.506Z,17.75
2022-09-28T03:47:19.593Z,19.17
2022-09-28T03:49:48.510Z,19.48
2022-09-28T03:52:16.384Z,23.00
2022-09-28T03:54:48.917Z,24.95
2022-09-28T03:57:16.820Z,16.73
2022-09-28T03:59:44.543Z,23.27
2022-09-28T04:02:12.091Z,20.17
2022-09-28T04:04:39.634Z,21.77
2022-09-28T04:07:08.491Z,19.67
2022-09-28T04:09:36.007Z,19.02
2022-09-28T04:12:04.578Z,18.45
2022-09-28T04:14:32.345Z,20.88
2022-09-28T04:16:59.830Z,25.73
2022-09-28T04:19:27.708Z,18.67
2022-09-28T04:21:55.248Z,23.08
2022-09-28T04:24:24.163Z,21.63
2022-09-28T04:26:51.801Z,22.17
2022-09-28T04:29:18.859Z,20.38
2022-09-28T04:31:49.511Z,18.30
2022-09-28T04:34:18.811Z,20.17
2022-09-28T04:36:46.713Z,20.80
2022-09-28T04:39:15.371Z,21.15
2022-09-28T04:41:44.555Z,19.73
2022-09-28T04:44:12.117Z,18.52
2022-09-28T04:46:39.609Z,19.08
2022-09-28T04:49:07.159Z,20.83
2022-09-28T04:51:34.728Z,22.13
2022-09-28T04:54:02.484Z,19.02
2022-09-28T04:56:30.015Z,23.52
2022-09-28T04:58:58.884Z,17.48
2022-09-28T05:01:26.479Z,20.38
2022-09-28T05:03:54.043Z,18.60
2022-09-28T05:06:22.585Z,22.23
2022-09-28T05:08:50.116Z,20.75
2022-09-28T05:11:19.755Z,22.20
2022-09-28T05:13:48.409Z,21.75
2022-09-28T05:16:20.215Z,18.85
2022-09-28T05:18:48.162Z,26.70
2022-09-28T05:21:19.420Z,19.17
2022-09-28T05:23:47.756Z,19.90
2022-09-28T05:26:15.321Z,21.33
2022-09-28T05:28:43.056Z,19.75
2022-09-28T05:31:10.761Z,20.48
2022-09-28T05:33:39.642Z,21.17
2022-09-28T05:36:10.258Z,26.10
2022-09-28T05:38:37.995Z,28.25
2022-09-28T05:41:06.733Z,26.48
2022-09-28T05:43:35.043Z,27.42
2022-09-28T05:46:02.687Z,20.20
2022-09-28T05:48:30.445Z,23.25
2022-09-28T05:50:59.595Z,26.17
2022-09-28T05:53:27.239Z,21.67
2022-09-28T05:55:58.900Z,22.08
2022-09-28T05:58:26.719Z,22.30
2022-09-28T06:00:55.981Z,23.58
2022-09-28T06:03:23.563Z,21.35
2022-09-28T06:05:51.536Z,22.50
2022-09-28T06:08:20.512Z,25.77
2022-09-28T06:10:48.077Z,22.33
2022-09-28T06:13:15.584Z,24.45
2022-09-28T06:15:44.768Z,22.10
2022-09-28T06:18:14.729Z,26.42
2022-09-28T06:20:42.737Z,22.90
2022-09-28T06:23:10.304Z,23.88
2022-09-28T06:25:39.755Z,22.13
2022-09-28T06:28:10.439Z,24.42
2022-09-28T06:30:38.993Z,27.25
2022-09-28T06:33:08.387Z,26.05
2022-09-28T06:35:36.371Z,23.38
2022-09-28T06:38:03.944Z,27.08
2022-09-28T06:40:31.687Z,28.77
2022-09-28T06:43:02.182Z,23.92
2022-09-28T06:45:31.252Z,24.17
2022-09-28T06:48:00.915Z,26.55
2022-09-28T06:50:32.148Z,29.40
2022-09-28T06:53:00.508Z,28.17
2022-09-28T06:55:29.118Z,25.30
2022-09-28T06:58:02.425Z,25.83
2022-09-28T07:00:32.838Z,29.23
2022-09-28T07:03:00.525Z,32.92
2022-09-28T07:05:29.289Z,26.48
2022-09-28T07:07:57.470Z,25.88
2022-09-28T07:10:25.990Z,26.63
2022-09-28T07:12:53.523Z,27.88
2022-09-28T07:15:22.986Z,25.75
2022-09-28T07:18:00.683Z,32.25
2022-09-28T07:20:30.888Z,25.63
2022-09-28T07:23:12.516Z,27.27
2022-09-28T07:25:45.381Z,29.42
2022-09-28T07:28:13.385Z,28.58
2022-09-28T07:30:44.146Z,28.23
2022-09-28T07:33:14.319Z,29.60
2022-09-28T07:35:42.884Z,28.90
2022-09-28T07:38:11.999Z,32.53
2022-09-28T07:40:57.193Z,30.15
2022-09-28T07:43:24.760Z,29.52
2022-09-28T07:45:55.581Z,30.23
2022-09-28T07:48:23.955Z,32.55
2022-09-28T07:50:52.220Z,27.65
2022-09-28T07:53:20.141Z,30.73
2022-09-28T07:55:52.116Z,29.33
2022-09-28T07:58:20.608Z,30.70
2022-09-28T08:00:49.019Z,29.50
2022-09-28T08:03:19.024Z,30.42
2022-09-28T08:05:47.337Z,26.20
2022-09-28T08:08:15.189Z,23.52
2022-09-28T08:10:46.554Z,22.48
2022-09-28T08:13:16.235Z,21.20
2022-09-28T08:15:43.786Z,26.20
2022-09-28T08:18:11.337Z,25.05
2022-09-28T08:20:57.488Z,27.58
2022-09-28T08:23:25.373Z,23.80
2022-09-28T08:25:53.967Z,25.85
2022-09-28T08:28:23.043Z,25.10
2022-09-28T08:30:51.063Z,24.13
2022-09-28T08:33:21.278Z,29.67
2022-09-28T08:35:57.397Z,26.98
2022-09-28T08:38:25.206Z,27.17
2022-09-28T08:41:04.960Z,26.10
2022-09-28T08:43:46.706Z,28.48
2022-09-28T08:46:22.706Z,28.88
2022-09-28T08:49:20.427Z,27.48
2022-09-28T08:51:50.645Z,27.42
2022-09-28T08:54:29.778Z,32.55
2022-09-28T08:57:02.979Z,33.72
2022-09-28T08:59:39.552Z,26.38
2022-09-28T09:02:18.103Z,29.40
2022-09-28T09:04:45.869Z,27.98
2022-09-28T09:07:27.882Z,28.17
2022-09-28T09:10:06.657Z,30.92
2022-09-28T09:12:45.137Z,28.38
2022-09-28T09:15:48.073Z,35.15
2022-09-28T09:18:26.085Z,33.45
2022-09-28T09:20:57.364Z,30.27
2022-09-28T09:23:37.145Z,34.60
2022-09-28T09:26:15.092Z,27.00
2022-09-28T09:29:18.414Z,28.48
2022-09-28T09:32:07.036Z,26.10
2022-09-28T09:34:57.845Z,27.20
2022-09-28T09:37:49.655Z,25.35
2022-09-28T09:40:30.303Z,25.52
2022-09-28T09:43:09.414Z,22.77
2022-09-28T09:45:50.659Z,24.13
2022-09-28T09:48:25.073Z,23.30
2022-09-28T09:50:57.285Z,22.93
2022-09-28T09:53:28.734Z,21.27
2022-09-28T09:56:05.015Z,27.30
2022-09-28T09:58:37.284Z,21.20
2022-09-28T10:01:08.886Z,16.73
2022-09-28T10:03:40.883Z,14.68
2022-09-28T10:06:12.506Z,17.85
2022-09-28T10:08:45.270Z,16.65
2022-09-28T10:11:18.021Z,17.08
2022-09-28T10:13:48.441Z,15.52
2022-09-28T10:16:17.262Z,14.55
2022-09-28T10:18:44.930Z,14.40
2022-09-28T10:21:14.208Z,14.70
2022-09-28T10:23:42.643Z,17.05
2022-09-28T10:26:25.340Z,16.63
2022-09-28T10:28:56.501Z,17.35
2022-09-28T10:31:39.011Z,16.50
2022-09-28T10:34:07.982Z,16.98
2022-09-28T10:36:47.677Z,15.85
2022-09-28T10:39:29.903Z,15.75
2022-09-28T10:42:03.454Z,15.57
2022-09-28T10:44:34.612Z,19.58
2022-09-28T10:47:04.124Z,16.30
2022-09-28T10:49:45.816Z,17.27
2022-09-28T10:52:33.258Z,16.02
2022-09-28T10:55:01.641Z,16.77
2022-09-28T10:57:34.993Z,15.30
2022-09-28T11:00:03.291Z,13.93
2022-09-28T11:02:36.012Z,13.73
2022-09-28T11:05:07.512Z,15.68
2022-09-28T11:07:46.996Z,15.02
2022-09-28T11:10:21.976Z,15.32
2022-09-28T11:12:52.322Z,15.20
2022-09-28T11:15:22.199Z,11.55
2022-09-28T11:17:49.735Z,16.00
2022-09-28T11:20:35.847Z,12.15
2022-09-28T11:23:20.337Z,8.00
2022-09-28T11:25:59.451Z,11.48
2022-09-28T11:28:32.662Z,10.35
2022-09-28T11:31:01.900Z,12.43
2022-09-28T11:33:33.284Z,10.50
2022-09-28T11:36:17.412Z,15.70
2022-09-28T11:38:54.865Z,11.48
2022-09-28T11:41:36.118Z,15.38
2022-09-28T11:44:19.424Z,8.77
2022-09-28T11:46:55.444Z,7.95
2022-09-28T11:49:31.919Z,7.22
2022-09-28T11:52:04.148Z,6.40
2022-09-28T11:54:39.226Z,8.82
2022-09-28T11:57:12.993Z,8.32
2022-09-28T11:59:52.377Z,7.72
2022-09-28T12:02:25.733Z,7.35
2022-09-28T12:04:57.805Z,10.63
2022-09-28T12:07:31.090Z,8.30
2022-09-28T12:10:04.110Z,8.23
2022-09-28T12:12:35.646Z,9.27
2022-09-28T12:15:16.158Z,6.47
2022-09-28T12:17:49.477Z,6.28
2022-09-28T12:20:22.262Z,8.20
2022-09-28T12:23:06.003Z,7.65
2022-09-28T12:25:41.781Z,8.73
2022-09-28T12:28:19.277Z,9.85
2022-09-28T12:30:50.317Z,10.98
2022-09-28T12:33:17.915Z,10.43
2022-09-28T12:36:07.608Z,10.52
2022-09-28T12:39:14.865Z,7.05
2022-09-28T12:41:55.759Z,6.63
2022-09-28T12:44:36.757Z,6.47
2022-09-28T12:47:28.112Z,7.38
2022-09-28T12:53:19.285Z,5.40
2022-09-28T12:55:59.057Z,10.32
2022-09-28T12:58:43.461Z,8.75
2022-09-28T13:01:29.821Z,8.13
2022-09-28T13:04:13.469Z,5.78
2022-09-28T13:06:50.134Z,7.13
2022-09-28T13:09:21.603Z,8.18
2022-09-28T13:12:25.546Z,5.38
2022-09-28T13:15:31.980Z,5.28
2022-09-28T13:18:08.029Z,17.45
2022-09-28T13:21:01.090Z,5.55
2022-09-28T13:23:31.519Z,6.63
2022-09-28T13:26:09.695Z,5.57
2022-09-28T13:28:38.836Z,6.40
2022-09-28T13:31:07.298Z,7.82
2022-09-28T13:33:39.406Z,7.80
2022-09-28T13:36:39.422Z,10.75
2022-09-28T13:39:56.384Z,9.05
2022-09-28T13:42:33.178Z,6.13
2022-09-28T13:45:32.298Z,5.68
2022-09-28T13:48:15.910Z,5.85
2022-09-28T13:51:10.452Z,8.77
2022-09-28T13:53:54.106Z,12.38
2022-09-28T13:56:29.727Z,4.40
2022-09-28T13:59:01.276Z,4.20
2022-09-28T14:01:33.030Z,4.13
2022-09-28T14:04:14.723Z,5.55
2022-09-28T14:06:55.610Z,4.00
2022-09-28T14:09:41.800Z,6.78
2022-09-28T14:12:30.512Z,4.53
2022-09-28T14:14:58.195Z,5.13
2022-09-28T14:17:54.733Z,3.70
2022-09-28T14:20:27.159Z,3.05
2022-09-28T14:23:33.250Z,3.47
2022-09-28T14:26:15.760Z,3.67
2022-09-28T14:28:53.729Z,6.93
2022-09-28T14:31:27.302Z,6.03
2022-09-28T14:33:58.824Z,6.82
2022-09-28T14:36:47.223Z,5.78
2022-09-28T14:39:41.062Z,4.32
2022-09-28T14:42:15.608Z,8.45
2022-09-28T14:45:19.747Z,9.07
2022-09-28T14:48:12.448Z,8.40
2022-09-28T14:50:40.345Z,5.95
2022-09-28T14:53:13.376Z,5.07
2022-09-28T14:55:50.149Z,5.03
2022-09-28T14:58:24.898Z,3.33
2022-09-28T15:01:02.393Z,3.97
2022-09-28T15:03:33.999Z,4.28
2022-09-28T15:06:01.784Z,5.82
2022-09-28T15:08:39.791Z,3.67
2022-09-28T15:11:11.814Z,4.45
2022-09-28T15:13:41.468Z,5.35
2022-09-28T15:16:12.605Z,4.07
2022-09-28T15:19:01.376Z,4.25
2022-09-28T15:21:35.582Z,6.80
2022-09-28T15:24:03.281Z,4.77
2022-09-28T15:26:32.402Z,4.72
2022-09-28T15:29:03.924Z,6.43
2022-09-28T15:31:35.990Z,7.13
2022-09-28T15:34:20.900Z,6.28
2022-09-28T15:36:49.835Z,6.15
2022-09-28T15:39:33.902Z,5.70
2022-09-28T15:42:02.158Z,5.47
2022-09-28T15:44:33.299Z,3.47
2022-09-28T15:47:10.883Z,3.95
2022-09-28T15:49:42.137Z,3.60
2022-09-28T15:52:24.834Z,4.40
2022-09-28T15:54:52.711Z,6.38
2022-09-28T15:57:36.673Z,3.58
2022-09-28T16:00:08.638Z,4.25
2022-09-28T16:02:36.578Z,11.68
2022-09-28T16:05:05.464Z,7.43
2022-09-28T16:07:38.323Z,5.88
2022-09-28T16:10:33.506Z,12.93
2022-09-28T16:13:14.173Z,4.70
2022-09-28T16:15:43.495Z,5.63
2022-09-28T16:18:21.951Z,4.80
2022-09-28T16:20:51.972Z,5.05
2022-09-28T16:23:24.156Z,3.25
2022-09-28T16:25:55.706Z,2.63
2022-09-28T16:28:48.810Z,2.40
2022-09-28T16:31:28.186Z,3.60
2022-09-28T16:33:58.135Z,2.83
2022-09-28T16:36:29.761Z,2.70
2022-09-28T16:38:57.555Z,2.00
2022-09-28T16:41:28.856Z,3.47
2022-09-28T16:44:00.888Z,2.65
2022-09-28T16:46:34.163Z,4.95
2022-09-28T16:49:03.009Z,2.85
2022-09-28T16:51:30.579Z,9.20
2022-09-28T16:54:18.798Z,3.75
2022-09-28T16:56:46.343Z,2.58
2022-09-28T16:59:14.118Z,3.58
2022-09-28T17:01:43.725Z,3.92
2022-09-28T17:04:12.005Z,5.25
2022-09-28T17:06:39.734Z,3.45
2022-09-28T17:09:07.862Z,2.92
2022-09-28T17:11:35.682Z,4.15
2022-09-28T17:14:03.599Z,2.55
2022-09-28T17:17:02.363Z,5.40
2022-09-28T17:19:24.010Z,3.95
2022-09-28T17:21:52.083Z,9.65
2022-09-28T17:24:20.291Z,5.00
2022-09-28T17:26:50.336Z,4.57
2022-09-28T17:29:18.524Z,2.75
2022-09-28T17:31:47.441Z,6.13
2022-09-28T17:34:16.833Z,4.20
2022-09-28T17:36:46.408Z,3.22
2022-09-28T17:39:15.334Z,3.60
2022-09-28T17:41:42.853Z,5.57
2022-09-28T17:44:10.352Z,11.95
2022-09-28T17:46:40.614Z,2.63
2022-09-28T17:49:11.186Z,3.15
2022-09-28T17:51:39.577Z,4.65
2022-09-28T17:54:09.533Z,6.40
2022-09-28T17:56:37.846Z,3.97
2022-09-28T17:59:07.270Z,6.20
2022-09-28T18:01:38.776Z,3.85
2022-09-28T18:04:09.299Z,5.85
2022-09-28T18:06:37.310Z,4.20
2022-09-28T18:09:06.091Z,4.07
2022-09-28T18:11:35.333Z,4.15
2022-09-28T18:14:03.019Z,5.53
2022-09-28T18:16:31.198Z,7.78
2022-09-28T18:18:59.404Z,7.60
2022-09-28T18:21:26.917Z,6.32
2022-09-28T18:23:54.411Z,5.05
2022-09-28T18:26:21.913Z,9.80
2022-09-28T18:28:54.875Z,11.02
2022-09-28T18:31:22.593Z,7.90
2022-09-28T18:33:50.261Z,10.60
2022-09-28T18:36:18.016Z,11.25
2022-09-28T18:38:45.542Z,9.18
2022-09-28T18:41:15.486Z,5.95
2022-09-28T18:43:43.837Z,5.03
2022-09-28T18:46:12.804Z,5.70
2022-09-28T18:48:41.532Z,8.50
2022-09-28T18:51:09.787Z,8.13
2022-09-28T18:53:37.666Z,7.22
2022-09-28T18:56:09.661Z,7.30
2022-09-28T18:58:38.583Z,3.95
2022-09-28T19:01:28.870Z,4.85
2022-09-28T19:04:01.257Z,3.42
2022-09-28T19:06:29.697Z,5.07
2022-09-28T19:08:57.780Z,5.38
2022-09-28T19:11:26.303Z,3.40
2022-09-28T19:13:54.633Z,10.23
2022-09-28T19:16:25.382Z,8.55
2022-09-28T19:18:53.642Z,12.73
2022-09-28T19:21:22.707Z,13.85
2022-09-28T19:23:51.978Z,18.58
2022-09-28T19:26:22.078Z,21.55
2022-09-28T19:28:49.918Z,22.70
2022-09-28T19:31:18.596Z,15.90
2022-09-28T19:33:47.060Z,10.50
2022-09-28T19:36:18.174Z,10.23
2022-09-28T19:38:47.302Z,10.68
2022-09-28T19:41:39.465Z,7.03
2022-09-28T19:44:12.994Z,4.32
2022-09-28T19:46:40.903Z,4.82
2022-09-28T19:49:10.911Z,4.78
2022-09-28T19:51:46.935Z,3.75
2022-09-28T19:54:33.138Z,3.25
2022-09-28T19:57:07.757Z,7.32
2022-09-28T19:59:36.419Z,3.63
2022-09-28T20:02:04.514Z,5.07
2022-09-28T20:04:32.034Z,3.80
2022-09-28T20:06:59.580Z,4.10
2022-09-28T20:09:28.446Z,4.60
2022-09-28T20:11:55.953Z,4.10
2022-09-28T20:14:25.880Z,6.90
2022-09-28T20:16:55.877Z,4.32
2022-09-28T20:19:23.387Z,4.40
2022-09-28T20:21:51.512Z,7.28
2022-09-28T20:24:19.005Z,6.85
2022-09-28T20:26:49.462Z,5.68
2022-09-28T20:29:17.366Z,12.10
2022-09-28T20:31:45.568Z,11.18
2022-09-28T20:34:13.780Z,9.40
2022-09-28T20:36:42.404Z,5.10
2022-09-28T20:39:11.661Z,6.60
2022-09-28T20:41:39.358Z,6.47
2022-09-28T20:44:08.244Z,9.30
2022-09-28T20:46:36.346Z,9.77
2022-09-28T20:49:04.833Z,7.53
2022-09-28T20:51:32.722Z,8.50
2022-09-28T20:54:00.682Z,6.30
2022-09-28T20:56:30.442Z,7.90
2022-09-28T20:58:58.113Z,5.85
2022-09-28T21:01:29.349Z,5.45
2022-09-28T21:03:58.493Z,4.63
2022-09-28T21:06:28.437Z,6.78
2022-09-28T21:08:56.050Z,4.78
2022-09-28T21:11:25.341Z,5.53
2022-09-28T21:13:54.435Z,5.55
2022-09-28T21:16:22.441Z,5.90
2022-09-28T21:18:51.255Z,5.43
2022-09-28T21:21:20.985Z,6.10
2022-09-28T21:23:48.948Z,6.07
2022-09-28T21:26:24.516Z,6.13
2022-09-28T21:28:54.931Z,6.85
2022-09-28T21:31:28.455Z,5.85
2022-09-28T21:33:58.546Z,5.80
2022-09-28T21:36:26.540Z,7.03
2022-09-28T21:38:54.977Z,6.20
2022-09-28T21:41:22.573Z,7.97
2022-09-28T21:43:50.137Z,7.47
2022-09-28T21:46:18.421Z,6.72
2022-09-28T21:48:46.041Z,7.85
2022-09-28T21:51:16.155Z,7.47
2022-09-28T21:53:43.819Z,6.63
2022-09-28T21:56:13.204Z,8.68
2022-09-28T21:58:41.055Z,7.65
2022-09-28T22:01:13.001Z,9.45
2022-09-28T22:03:40.594Z,6.70
2022-09-28T22:06:09.097Z,7.00
2022-09-28T22:08:38.936Z,7.38
2022-09-28T22:11:07.942Z,7.95
2022-09-28T22:13:37.397Z,10.88
2022-09-28T22:16:04.944Z,9.25
2022-09-28T22:18:34.008Z,6.93
2022-09-28T22:21:02.865Z,8.00
2022-09-28T22:23:30.988Z,9.07
2022-09-28T22:26:01.088Z,8.27
2022-09-28T22:28:29.044Z,9.68
2022-09-28T22:30:57.065Z,12.80
2022-09-28T22:33:25.105Z,9.60
2022-09-28T22:35:52.850Z,8.80
2022-09-28T22:38:21.291Z,8.35
2022-09-28T22:40:49.114Z,10.13
2022-09-28T22:43:19.700Z,11.55
2022-09-28T22:45:47.666Z,8.70
2022-09-28T22:48:15.197Z,12.45
2022-09-28T22:50:49.752Z,12.32
2022-09-28T22:53:17.405Z,8.20
2022-09-28T22:55:45.279Z,9.07
2022-09-28T22:58:13.448Z,8.73
2022-09-28T23:00:42.995Z,8.43
2022-09-28T23:03:10.537Z,9.98
2022-09-28T23:05:38.131Z,8.45
2022-09-28T23:08:05.660Z,11.05
2022-09-28T23:10:33.128Z,8.75
2022-09-28T23:13:00.607Z,9.63
2022-09-28T23:15:28.896Z,9.65
2022-09-28T23:17:57.791Z,8.00
2022-09-28T23:20:25.439Z,9.15
2022-09-28T23:22:52.930Z,10.57
2022-09-28T23:25:20.817Z,13.25
2022-09-28T23:27:49.458Z,9.00
2022-09-28T23:30:19.758Z,9.05
2022-09-28T23:32:47.339Z,9.60
2022-09-28T23:35:16.270Z,11.57
2022-09-28T23:37:43.755Z,10.68
2022-09-28T23:40:11.544Z,8.85
2022-09-28T23:42:39.034Z,9.70
2022-09-28T23:45:07.243Z,8.45
2022-09-28T23:47:37.224Z,9.43
2022-09-28T23:50:05.167Z,8.65
2022-09-28T23:52:34.123Z,8.23
2022-09-28T23:55:01.614Z,8.70
2022-09-28T23:57:29.129Z,8.13
2022-09-28T23:59:56.595Z,11.38
